Time;durP1;ratioP1;P1;durP2;ratioP2;P2;SDS_P1;SDS_P2;PMS_P1;PMS_P2;Temp;Humidity;BMP_temperature;BMP_pressure;BME280_temperature;BME280_humidity;BME280_pressure;Samples;Min_cycle;Max_cycle;Signal;HPM_P1;HPM_P2
2023/07/26 00:00:25;;;;;;;7.00;4.20;;;;;;;-145.41;100.00;58600.66;4993383;28;20042;-81
2023/07/26 00:02:51;;;;;;;4.95;3.85;;;;;;;-145.41;100.00;58600.66;4998994;28;20096;-81
2023/07/26 00:05:16;;;;;;;10.90;4.60;;;;;;;-145.41;100.00;58600.66;5001308;28;20501;-81
2023/07/26 00:07:41;;;;;;;7.13;4.05;;;;;;;-145.41;100.00;58600.66;4997845;28;20084;-82
2023/07/26 00:10:07;;;;;;;7.97;3.60;;;;;;;-145.41;100.00;58600.66;4995474;28;20034;-82
2023/07/26 00:12:32;;;;;;;7.30;4.60;;;;;;;-145.41;100.00;58600.66;4994447;28;20092;-82
2023/07/26 00:14:58;;;;;;;6.53;4.00;;;;;;;-145.41;100.00;58600.66;5000447;28;20038;-81
2023/07/26 00:17:23;;;;;;;8.30;3.97;;;;;;;-145.41;100.00;58600.66;4994383;28;20048;-81
2023/07/26 00:19:48;;;;;;;5.50;3.33;;;;;;;-145.41;100.00;58600.66;4995053;28;20038;-82
2023/07/26 00:22:14;;;;;;;6.57;3.90;;;;;;;-145.41;100.00;58600.66;4995610;28;20057;-82
2023/07/26 00:24:39;;;;;;;5.68;3.30;;;;;;;-145.41;100.00;58600.66;4994611;28;20035;-82
2023/07/26 00:27:04;;;;;;;5.93;3.65;;;;;;;-145.41;100.00;58600.66;4993264;28;20396;-82
2023/07/26 00:29:30;;;;;;;5.38;3.20;;;;;;;-145.41;100.00;58600.66;4992972;28;20046;-82
2023/07/26 00:31:55;;;;;;;7.90;3.63;;;;;;;-145.41;100.00;58600.66;4999575;28;20045;-82
2023/07/26 00:34:21;;;;;;;6.70;3.03;;;;;;;-145.41;100.00;58600.66;5000161;28;20113;-82
2023/07/26 00:36:46;;;;;;;5.20;3.08;;;;;;;-145.41;100.00;58600.66;4993411;28;20058;-82
2023/07/26 00:39:11;;;;;;;5.45;3.38;;;;;;;-145.41;100.00;58600.66;4995327;28;20042;-81
2023/07/26 00:41:37;;;;;;;6.68;3.63;;;;;;;-145.41;100.00;58600.66;4999444;28;20049;-82
2023/07/26 00:44:04;;;;;;;5.28;3.13;;;;;;;-145.41;100.00;58600.66;4993526;28;20038;-83
2023/07/26 00:46:29;;;;;;;7.00;2.88;;;;;;;-145.41;100.00;58600.66;5003487;28;20058;-83
2023/07/26 00:48:57;;;;;;;4.97;2.95;;;;;;;-145.41;100.00;58600.66;4996830;28;20035;-83
2023/07/26 00:51:23;;;;;;;6.18;3.53;;;;;;;-145.41;100.00;58600.66;5001556;28;20038;-83
2023/07/26 00:53:48;;;;;;;8.02;3.50;;;;;;;-145.41;100.00;58600.66;4980789;28;20035;-82
2023/07/26 00:56:13;;;;;;;6.28;2.90;;;;;;;-145.41;100.00;58600.66;5000449;28;20489;-81
2023/07/26 00:58:40;;;;;;;6.40;3.28;;;;;;;-145.41;100.00;58600.66;4993993;28;20038;-81
2023/07/26 01:01:05;;;;;;;7.60;2.63;;;;;;;-145.41;100.00;58600.66;4996127;28;20405;-81
2023/07/26 01:03:31;;;;;;;8.23;2.83;;;;;;;-145.41;100.00;58600.66;4995157;28;20038;-81
2023/07/26 01:06:20;;;;;;;5.45;2.70;;;;;;;-145.41;100.00;58600.66;4991235;28;20038;-81
2023/07/26 01:09:04;;;;;;;7.07;2.88;;;;;;;-145.41;100.00;58600.66;4993454;28;20058;-81
2023/07/26 01:11:50;;;;;;;5.43;2.58;;;;;;;-145.41;100.00;58600.66;4992291;28;20043;-81
2023/07/26 01:14:20;;;;;;;5.43;3.47;;;;;;;-145.41;100.00;58600.66;4996135;28;20029;-81
2023/07/26 01:16:46;;;;;;;5.78;3.38;;;;;;;-145.41;100.00;58600.66;4991281;28;20090;-81
2023/07/26 01:19:12;;;;;;;6.15;3.35;;;;;;;-145.41;100.00;58600.66;4991362;28;20080;-81
2023/07/26 01:21:37;;;;;;;7.22;3.28;;;;;;;-145.41;100.00;58600.66;5000156;28;20046;-81
2023/07/26 01:24:05;;;;;;;6.60;2.78;;;;;;;-145.41;100.00;58600.66;4995123;28;20035;-81
2023/07/26 01:26:30;;;;;;;7.72;2.80;;;;;;;-145.41;100.00;58600.66;4997704;28;20053;-80
2023/07/26 01:28:56;;;;;;;6.47;2.72;;;;;;;-145.41;100.00;58600.66;4996296;28;20026;-80
2023/07/26 01:31:24;;;;;;;6.40;2.70;;;;;;;-145.41;100.00;58600.66;4985961;28;20411;-81
2023/07/26 01:33:51;;;;;;;8.52;3.28;;;;;;;-145.41;100.00;58600.66;4990771;28;20038;-81
2023/07/26 01:36:19;;;;;;;6.90;2.90;;;;;;;-145.41;100.00;58600.66;4996916;28;20089;-81
2023/07/26 01:38:47;;;;;;;8.55;2.85;;;;;;;-145.41;100.00;58600.66;4994157;28;20656;-80
2023/07/26 01:41:13;;;;;;;6.68;2.60;;;;;;;-145.41;100.00;58600.66;4992702;28;20038;-81
2023/07/26 01:43:38;;;;;;;4.85;2.88;;;;;;;-145.41;100.00;58600.66;4991523;28;20047;-81
2023/07/26 01:46:05;;;;;;;6.13;2.33;;;;;;;-145.41;100.00;58600.66;4992787;28;20030;-82
2023/07/26 01:48:30;;;;;;;5.55;2.88;;;;;;;-145.41;100.00;58600.66;4991901;28;20039;-82
2023/07/26 01:50:56;;;;;;;5.43;3.00;;;;;;;-145.41;100.00;58600.66;4994763;28;20042;-82
2023/07/26 01:53:21;;;;;;;5.25;3.08;;;;;;;-145.41;100.00;58600.66;4993015;28;20037;-82
2023/07/26 01:55:47;;;;;;;6.05;2.55;;;;;;;-145.41;100.00;58600.66;4992979;28;20026;-82
2023/07/26 01:58:12;;;;;;;4.18;2.50;;;;;;;-145.41;100.00;58600.66;4996744;28;20400;-82
2023/07/26 02:00:38;;;;;;;6.13;3.10;;;;;;;-145.41;100.00;58600.66;4989697;28;20517;-82
2023/07/26 02:03:03;;;;;;;6.45;2.92;;;;;;;-145.41;100.00;58600.66;4992753;28;20046;-81
2023/07/26 02:05:28;;;;;;;6.30;3.65;;;;;;;-145.41;100.00;58600.66;4994129;28;20074;-81
2023/07/26 02:07:54;;;;;;;7.75;3.85;;;;;;;-145.41;100.00;58600.66;4990148;28;20031;-81
2023/07/26 02:10:19;;;;;;;6.05;2.15;;;;;;;-145.41;100.00;58600.66;4995894;28;20069;-81
2023/07/26 02:12:44;;;;;;;4.95;2.58;;;;;;;-145.41;100.00;58600.66;4996784;28;20053;-81
2023/07/26 02:15:10;;;;;;;5.70;2.65;;;;;;;-145.41;100.00;58600.66;4992946;28;20034;-81
2023/07/26 02:17:35;;;;;;;4.97;1.95;;;;;;;-145.41;100.00;58600.66;4992227;28;20034;-81
2023/07/26 02:20:00;;;;;;;7.25;2.42;;;;;;;-145.41;100.00;58600.66;4992793;28;20042;-81
2023/07/26 02:22:26;;;;;;;5.45;2.22;;;;;;;-145.41;100.00;58600.66;4996907;28;20030;-81
2023/07/26 02:24:51;;;;;;;5.47;1.90;;;;;;;-145.41;100.00;58600.66;4991085;28;20043;-81
2023/07/26 02:27:17;;;;;;;4.45;1.80;;;;;;;-145.41;100.00;58600.66;4997904;28;20066;-81
2023/07/26 02:29:42;;;;;;;7.30;2.78;;;;;;;-145.41;100.00;58600.66;4993236;28;20041;-80
2023/07/26 02:32:07;;;;;;;7.15;2.42;;;;;;;-145.41;100.00;58600.66;4996430;28;20034;-80
2023/07/26 02:34:35;;;;;;;8.30;2.70;;;;;;;-145.41;100.00;58600.66;4996253;28;20030;-80
2023/07/26 02:37:03;;;;;;;7.25;1.98;;;;;;;-145.41;100.00;58600.66;4990533;28;20039;-80
2023/07/26 02:39:28;;;;;;;8.73;2.55;;;;;;;-145.41;100.00;58600.66;4996781;28;20113;-80
2023/07/26 02:41:53;;;;;;;5.47;2.25;;;;;;;-145.41;100.00;58600.66;4992481;28;20069;-80
2023/07/26 02:44:19;;;;;;;6.00;2.08;;;;;;;-145.41;100.00;58600.66;4992948;28;20044;-80
2023/07/26 02:46:44;;;;;;;5.22;2.05;;;;;;;-145.41;100.00;58600.66;4997894;28;20038;-81
2023/07/26 02:49:09;;;;;;;8.80;2.30;;;;;;;-145.41;100.00;58600.66;4997398;28;20045;-81
2023/07/26 02:51:35;;;;;;;5.10;2.15;;;;;;;-145.41;100.00;58600.66;4994989;28;20042;-82
2023/07/26 02:54:00;;;;;;;5.45;1.67;;;;;;;-145.41;100.00;58600.66;4996890;28;20428;-81
2023/07/26 02:56:25;;;;;;;6.60;1.92;;;;;;;-145.41;100.00;58600.66;4994831;28;20042;-81
2023/07/26 02:58:51;;;;;;;7.82;2.30;;;;;;;-145.41;100.00;58600.66;4991087;28;20038;-81
2023/07/26 03:01:16;;;;;;;4.82;1.70;;;;;;;-145.41;100.00;58600.66;4992034;28;20124;-81
2023/07/26 03:03:42;;;;;;;7.55;1.92;;;;;;;-145.41;100.00;58600.66;4993452;28;20041;-81
2023/07/26 03:06:08;;;;;;;12.13;2.75;;;;;;;-145.41;100.00;58600.66;4995806;28;20031;-81
2023/07/26 03:08:33;;;;;;;3.63;1.88;;;;;;;-145.41;100.00;58600.66;4993314;28;20057;-81
2023/07/26 03:10:58;;;;;;;6.32;1.95;;;;;;;-145.41;100.00;58600.66;4989741;28;20431;-80
2023/07/26 03:13:24;;;;;;;6.35;1.98;;;;;;;-145.41;100.00;58600.66;4992053;28;20379;-81
2023/07/26 03:15:49;;;;;;;4.68;1.58;;;;;;;-145.41;100.00;58600.66;4995430;28;20030;-81
2023/07/26 03:18:14;;;;;;;5.68;2.10;;;;;;;-145.41;100.00;58600.66;4991841;28;20530;-81
2023/07/26 03:20:44;;;;;;;4.53;1.70;;;;;;;-145.41;100.00;58600.66;4989887;28;20050;-81
2023/07/26 03:23:09;;;;;;;4.65;1.73;;;;;;;-145.41;100.00;58600.66;4994329;28;20509;-81
2023/07/26 03:25:35;;;;;;;5.30;2.25;;;;;;;-145.41;100.00;58600.66;4986819;28;20065;-81
2023/07/26 03:28:00;;;;;;;5.00;1.70;;;;;;;-145.41;100.00;58600.66;4991870;28;20046;-83
2023/07/26 03:30:25;;;;;;;6.22;1.70;;;;;;;-145.41;100.00;58600.66;4995875;28;20070;-82
2023/07/26 03:32:52;;;;;;;3.58;1.20;;;;;;;-145.41;100.00;58600.66;4995786;28;20042;-83
2023/07/26 03:35:17;;;;;;;4.03;1.95;;;;;;;-145.41;100.00;58600.66;5001106;28;20045;-83
2023/07/26 03:37:42;;;;;;;4.93;1.60;;;;;;;-145.41;100.00;58600.66;4999356;28;20038;-83
2023/07/26 03:40:08;;;;;;;4.03;1.48;;;;;;;-145.41;100.00;58600.66;4995840;28;20038;-84
2023/07/26 03:42:33;;;;;;;5.50;1.52;;;;;;;-145.41;100.00;58600.66;4996983;28;20041;-84
2023/07/26 03:44:59;;;;;;;7.55;1.88;;;;;;;-145.41;100.00;58600.66;4993285;28;20053;-83
2023/07/26 03:47:24;;;;;;;6.25;1.80;;;;;;;-145.41;100.00;58600.66;4997567;28;20037;-82
2023/07/26 03:49:50;;;;;;;3.92;1.27;;;;;;;-145.41;100.00;58600.66;4999276;28;20477;-83
2023/07/26 03:52:15;;;;;;;4.07;1.58;;;;;;;-145.41;100.00;58600.66;4999717;28;20576;-83
2023/07/26 03:54:40;;;;;;;6.82;1.85;;;;;;;-145.41;100.00;58600.66;5003451;28;20030;-83
2023/07/26 03:57:07;;;;;;;5.00;1.83;;;;;;;-145.41;100.00;58600.66;5001269;28;20070;-83
2023/07/26 03:59:33;;;;;;;4.45;1.70;;;;;;;-145.41;100.00;58600.66;5003294;28;20420;-83
2023/07/26 04:01:58;;;;;;;4.47;1.60;;;;;;;-145.41;100.00;58600.66;5000588;28;20034;-83
2023/07/26 04:04:23;;;;;;;6.13;1.90;;;;;;;-145.41;100.00;58600.66;5000409;28;20042;-83
2023/07/26 04:06:49;;;;;;;3.58;1.27;;;;;;;-145.41;100.00;58600.66;5003191;28;20114;-83
2023/07/26 04:09:14;;;;;;;5.80;1.77;;;;;;;-145.41;100.00;58600.66;5001603;28;20106;-83
2023/07/26 04:11:40;;;;;;;6.50;1.83;;;;;;;-145.41;100.00;58600.66;5000723;28;20046;-83
2023/07/26 04:14:05;;;;;;;5.63;1.40;;;;;;;-145.41;100.00;58600.66;5000682;28;20034;-83
2023/07/26 04:16:30;;;;;;;4.15;1.45;;;;;;;-145.41;100.00;58600.66;4996942;28;20042;-83
2023/07/26 04:18:56;;;;;;;4.38;1.30;;;;;;;-145.41;100.00;58600.66;4996289;28;20034;-83
2023/07/26 04:21:21;;;;;;;3.20;1.42;;;;;;;-145.41;100.00;58600.66;5001065;28;20054;-83
2023/07/26 04:23:46;;;;;;;8.20;1.30;;;;;;;-145.41;100.00;58600.66;4995807;28;20113;-83
2023/07/26 04:26:12;;;;;;;7.50;2.08;;;;;;;-145.41;100.00;58600.66;4998389;28;20041;-82
2023/07/26 04:28:39;;;;;;;4.03;1.30;;;;;;;-145.41;100.00;58600.66;4997885;28;20401;-82
2023/07/26 04:31:04;;;;;;;5.40;1.48;;;;;;;-145.41;100.00;58600.66;4997750;28;20034;-82
2023/07/26 04:33:30;;;;;;;4.82;1.60;;;;;;;-145.41;100.00;58600.66;4998868;28;20497;-82
2023/07/26 04:35:57;;;;;;;3.45;1.20;;;;;;;-145.41;100.00;58600.66;4997611;28;20409;-82
2023/07/26 04:38:22;;;;;;;4.22;1.27;;;;;;;-145.41;100.00;58600.66;4996707;28;20470;-83
2023/07/26 04:40:48;;;;;;;4.97;1.40;;;;;;;-145.41;100.00;58600.66;4998684;28;20121;-80
2023/07/26 04:43:19;;;;;;;5.05;1.35;;;;;;;-145.41;100.00;58600.66;5000074;28;20036;-81
2023/07/26 04:45:52;;;;;;;5.50;1.50;;;;;;;-145.41;100.00;58600.66;4999582;28;20109;-84
2023/07/26 04:48:18;;;;;;;4.18;1.30;;;;;;;-145.41;100.00;58600.66;4998861;28;20050;-84
2023/07/26 04:50:45;;;;;;;3.70;1.17;;;;;;;-145.41;100.00;58600.66;5003867;28;20056;-84
2023/07/26 04:53:11;;;;;;;6.13;2.10;;;;;;;-145.41;100.00;58600.66;5001532;28;20319;-84
2023/07/26 04:55:43;;;;;;;5.50;1.77;;;;;;;-145.41;100.00;58600.66;5002638;28;20125;-84
2023/07/26 04:58:08;;;;;;;7.60;1.83;;;;;;;-145.41;100.00;58600.66;5001807;28;20049;-84
2023/07/26 05:00:33;;;;;;;4.63;1.70;;;;;;;-145.41;100.00;58600.66;4997071;28;20042;-84
2023/07/26 05:02:58;;;;;;;8.65;2.03;;;;;;;-145.41;100.00;58600.66;4999933;28;20075;-84
2023/07/26 05:05:24;;;;;;;7.53;2.10;;;;;;;-145.41;100.00;58600.66;4999144;28;20030;-84
2023/07/26 05:07:49;;;;;;;7.78;1.70;;;;;;;-145.41;100.00;58600.66;4999725;28;20037;-84
2023/07/26 05:10:14;;;;;;;8.18;1.77;;;;;;;-145.41;100.00;58600.66;4998398;28;20034;-84
2023/07/26 05:12:40;;;;;;;6.00;2.28;;;;;;;-145.41;100.00;58600.66;4999282;28;20049;-84
2023/07/26 05:15:06;;;;;;;6.28;2.20;;;;;;;-145.41;100.00;58600.66;4998603;28;20382;-84
2023/07/26 05:17:31;;;;;;;6.75;1.75;;;;;;;-145.41;100.00;58600.66;4998858;28;20516;-84
2023/07/26 05:19:56;;;;;;;9.35;2.33;;;;;;;-145.41;100.00;58600.66;4998266;28;20034;-84
2023/07/26 05:22:21;;;;;;;5.72;1.60;;;;;;;-145.41;100.00;58600.66;4998224;28;20065;-84
2023/07/26 05:24:47;;;;;;;9.43;1.85;;;;;;;-145.41;100.00;58600.66;4998304;28;20042;-84
2023/07/26 05:27:13;;;;;;;10.48;2.20;;;;;;;-145.41;100.00;58600.66;4998046;28;20094;-83
2023/07/26 05:29:38;;;;;;;8.00;1.85;;;;;;;-145.41;100.00;58600.66;4999484;28;20034;-84
2023/07/26 05:32:04;;;;;;;12.35;2.70;;;;;;;-145.41;100.00;58600.66;4999531;28;20118;-84
2023/07/26 05:34:29;;;;;;;4.32;1.77;;;;;;;-145.41;100.00;58600.66;4998716;28;20070;-83
2023/07/26 05:36:54;;;;;;;5.53;1.80;;;;;;;-145.41;100.00;58600.66;4997266;28;20512;-84
2023/07/26 05:39:20;;;;;;;4.55;1.35;;;;;;;-145.41;100.00;58600.66;4999073;28;20409;-83
2023/07/26 05:41:45;;;;;;;9.05;2.40;;;;;;;-145.41;100.00;58600.66;4999437;28;20042;-83
2023/07/26 05:44:10;;;;;;;4.18;1.52;;;;;;;-145.41;100.00;58600.66;4998416;28;20058;-83
2023/07/26 05:46:35;;;;;;;5.57;1.50;;;;;;;-145.41;100.00;58600.66;5000992;28;20093;-83
2023/07/26 05:49:01;;;;;;;7.40;1.70;;;;;;;-145.41;100.00;58600.66;4998687;28;20046;-83
2023/07/26 05:51:26;;;;;;;4.55;1.33;;;;;;;-145.41;100.00;58600.66;4998955;28;20038;-83
2023/07/26 05:53:51;;;;;;;6.13;1.92;;;;;;;-145.41;100.00;58600.66;5000660;28;20109;-84
2023/07/26 05:56:17;;;;;;;5.35;1.67;;;;;;;-145.41;100.00;58600.66;4997317;28;20556;-83
2023/07/26 05:58:43;;;;;;;5.60;1.83;;;;;;;-145.41;100.00;58600.66;4998895;28;20026;-83
2023/07/26 06:01:08;;;;;;;6.53;1.80;;;;;;;-145.41;100.00;58600.66;4997792;28;20117;-83
2023/07/26 06:03:33;;;;;;;4.55;1.95;;;;;;;-145.41;100.00;58600.66;4999584;28;20097;-83
2023/07/26 06:05:59;;;;;;;11.73;2.05;;;;;;;-145.41;100.00;58600.66;4997832;28;20053;-83
2023/07/26 06:08:25;;;;;;;4.70;1.63;;;;;;;-145.41;100.00;58600.66;4998375;28;20038;-83
2023/07/26 06:10:50;;;;;;;7.25;1.63;;;;;;;-145.41;100.00;58600.66;4997894;28;20187;-83
2023/07/26 06:13:15;;;;;;;8.00;1.80;;;;;;;-145.41;100.00;58600.66;4997266;28;20038;-83
2023/07/26 06:15:41;;;;;;;9.60;3.17;;;;;;;-145.41;100.00;58600.66;4998008;28;20096;-83
2023/07/26 06:18:07;;;;;;;7.47;1.88;;;;;;;-145.41;100.00;58600.66;4996057;28;20402;-83
2023/07/26 06:20:32;;;;;;;7.43;2.15;;;;;;;-145.41;100.00;58600.66;4997702;28;20042;-84
2023/07/26 06:22:57;;;;;;;5.95;1.52;;;;;;;-145.41;100.00;58600.66;4996957;28;20045;-83
2023/07/26 06:25:23;;;;;;;7.72;1.73;;;;;;;-145.41;100.00;58600.66;4997277;28;20038;-83
2023/07/26 06:27:48;;;;;;;4.78;1.30;;;;;;;-145.41;100.00;58600.66;4996931;28;20034;-83
2023/07/26 06:30:15;;;;;;;5.95;1.60;;;;;;;-145.41;100.00;58600.66;4993458;28;20117;-83
2023/07/26 06:32:40;;;;;;;6.35;2.05;;;;;;;-145.41;100.00;58600.66;4999899;28;20078;-83
2023/07/26 06:35:06;;;;;;;5.75;1.52;;;;;;;-145.41;100.00;58600.66;4998918;28;20481;-83
2023/07/26 06:37:32;;;;;;;5.15;1.35;;;;;;;-145.41;100.00;58600.66;5000542;28;20037;-83
2023/07/26 06:39:57;;;;;;;4.68;1.25;;;;;;;-145.41;100.00;58600.66;4997287;28;20030;-83
2023/07/26 06:42:22;;;;;;;5.30;1.30;;;;;;;-145.41;100.00;58600.66;4998494;28;20034;-83
2023/07/26 06:44:48;;;;;;;5.15;1.52;;;;;;;-145.41;100.00;58600.66;4995427;28;20033;-83
2023/07/26 06:47:13;;;;;;;5.57;1.30;;;;;;;-145.41;100.00;58600.66;4995946;28;20046;-83
2023/07/26 06:49:38;;;;;;;6.85;1.95;;;;;;;-145.41;100.00;58600.66;4996962;28;20046;-83
2023/07/26 06:52:04;;;;;;;4.55;1.27;;;;;;;-145.41;100.00;58600.66;4996016;28;20042;-83
2023/07/26 06:54:30;;;;;;;5.85;1.30;;;;;;;-145.41;100.00;58600.66;4996379;28;20088;-83
2023/07/26 06:56:55;;;;;;;5.85;1.27;;;;;;;-145.41;100.00;58600.66;4995950;28;20049;-83
2023/07/26 06:59:21;;;;;;;3.97;1.80;;;;;;;-145.41;100.00;58600.66;4995589;28;20038;-83
2023/07/26 07:01:46;;;;;;;5.13;1.30;;;;;;;-145.41;100.00;58600.66;4996502;28;20042;-83
2023/07/26 07:04:11;;;;;;;4.07;1.33;;;;;;;-145.41;100.00;58600.66;4996190;28;20042;-83
2023/07/26 07:06:37;;;;;;;6.45;1.45;;;;;;;-145.41;100.00;58600.66;4995955;28;20038;-82
2023/07/26 07:09:04;;;;;;;5.53;1.42;;;;;;;-145.41;100.00;58600.66;4998646;28;20501;-83
2023/07/26 07:11:29;;;;;;;6.25;1.20;;;;;;;-145.41;100.00;58600.66;4996188;28;20045;-83
2023/07/26 07:13:56;;;;;;;5.47;1.50;;;;;;;-145.41;100.00;58600.66;4994739;28;20034;-83
2023/07/26 07:16:22;;;;;;;8.88;1.58;;;;;;;-145.41;100.00;58600.66;4995564;28;20030;-83
2023/07/26 07:18:48;;;;;;;5.43;1.73;;;;;;;-145.41;100.00;58600.66;4995052;28;20085;-82
2023/07/26 07:21:14;;;;;;;3.60;1.10;;;;;;;-145.41;100.00;58600.66;4995256;28;20041;-83
2023/07/26 07:23:39;;;;;;;4.53;1.35;;;;;;;-145.41;100.00;58600.66;4994895;28;20043;-83
2023/07/26 07:26:04;;;;;;;4.05;1.20;;;;;;;-145.41;100.00;58600.66;4995960;28;20043;-83
2023/07/26 07:28:30;;;;;;;6.55;1.95;;;;;;;-145.41;100.00;58600.66;4996172;28;20039;-83
2023/07/26 07:30:55;;;;;;;4.72;1.15;;;;;;;-145.41;100.00;58600.66;4995735;28;20057;-83
2023/07/26 07:33:20;;;;;;;6.25;1.40;;;;;;;-145.41;100.00;58600.66;4995889;28;20046;-83
2023/07/26 07:35:46;;;;;;;3.83;1.33;;;;;;;-145.41;100.00;58600.66;4995762;28;20136;-83
2023/07/26 07:38:12;;;;;;;4.25;1.33;;;;;;;-145.41;100.00;58600.66;4998023;28;20038;-83
2023/07/26 07:40:37;;;;;;;3.88;1.50;;;;;;;-145.41;100.00;58600.66;4994726;28;20158;-83
2023/07/26 07:43:03;;;;;;;4.78;1.38;;;;;;;-145.41;100.00;58600.66;4995665;28;20410;-82
2023/07/26 07:45:28;;;;;;;3.45;1.25;;;;;;;-145.41;100.00;58600.66;4995840;28;20045;-83
2023/07/26 07:47:54;;;;;;;4.35;1.30;;;;;;;-145.41;100.00;58600.66;4995130;28;20038;-82
2023/07/26 07:50:19;;;;;;;2.67;0.90;;;;;;;-145.41;100.00;58600.66;4991583;28;20044;-83
2023/07/26 07:52:44;;;;;;;4.38;1.13;;;;;;;-145.41;100.00;58600.66;4995162;28;20038;-82
2023/07/26 07:55:10;;;;;;;9.40;1.83;;;;;;;-145.41;100.00;58600.66;4995850;28;20125;-82
2023/07/26 07:57:35;;;;;;;5.13;1.58;;;;;;;-145.41;100.00;58600.66;4990177;28;20138;-82
2023/07/26 08:00:01;;;;;;;4.60;1.15;;;;;;;-145.41;100.00;58600.66;4990775;28;20045;-82
2023/07/26 08:02:26;;;;;;;7.00;1.67;;;;;;;-145.41;100.00;58600.66;4995046;28;20149;-82
2023/07/26 08:04:52;;;;;;;7.13;1.70;;;;;;;-145.41;100.00;58600.66;4996113;28;20034;-82
2023/07/26 08:07:17;;;;;;;3.30;1.33;;;;;;;-145.41;100.00;58600.66;4995061;28;20038;-82
2023/07/26 08:09:42;;;;;;;8.90;1.40;;;;;;;-145.41;100.00;58600.66;4994780;28;20121;-83
2023/07/26 08:12:08;;;;;;;4.22;1.60;;;;;;;-145.41;100.00;58600.66;4993881;28;20058;-83
2023/07/26 08:14:34;;;;;;;5.18;1.80;;;;;;;-145.41;100.00;58600.66;4995851;28;20390;-82
2023/07/26 08:17:00;;;;;;;3.88;1.58;;;;;;;-145.41;100.00;58600.66;4998034;28;20053;-82
2023/07/26 08:19:25;;;;;;;4.35;1.50;;;;;;;-145.41;100.00;58600.66;4997740;28;20424;-83
2023/07/26 08:21:51;;;;;;;5.95;2.28;;;;;;;-145.41;100.00;58600.66;4998551;28;20038;-83
2023/07/26 08:24:17;;;;;;;3.63;1.40;;;;;;;-145.41;100.00;58600.66;4998357;28;20101;-83
2023/07/26 08:26:42;;;;;;;4.82;1.70;;;;;;;-145.41;100.00;58600.66;4997974;28;20038;-83
2023/07/26 08:29:07;;;;;;;5.40;1.77;;;;;;;-145.41;100.00;58600.66;4997140;28;20045;-83
2023/07/26 08:31:33;;;;;;;5.32;1.58;;;;;;;-145.41;100.00;58600.66;4996217;28;20038;-82
2023/07/26 08:33:58;;;;;;;4.25;1.27;;;;;;;-145.41;100.00;58600.66;4997616;28;20185;-82
2023/07/26 08:36:24;;;;;;;3.70;1.02;;;;;;;-145.41;100.00;58600.66;4997932;28;20042;-83
2023/07/26 08:38:49;;;;;;;3.10;1.30;;;;;;;-145.41;100.00;58600.66;4998401;28;20133;-83
2023/07/26 08:41:14;;;;;;;4.63;1.10;;;;;;;-145.41;100.00;58600.66;4999048;28;20490;-83
2023/07/26 08:43:41;;;;;;;3.03;1.23;;;;;;;-145.41;100.00;58600.66;4995695;28;20038;-82
2023/07/26 08:46:08;;;;;;;6.35;2.25;;;;;;;-145.41;100.00;58600.66;5001718;28;20029;-83
2023/07/26 08:48:34;;;;;;;5.93;1.52;;;;;;;-145.41;100.00;58600.66;4997087;28;20053;-82
2023/07/26 08:51:00;;;;;;;8.93;1.77;;;;;;;-145.41;100.00;58600.66;5005291;28;20495;-82
2023/07/26 08:53:27;;;;;;;3.45;1.15;;;;;;;-145.41;100.00;58600.66;4998191;28;20057;-82
2023/07/26 08:55:53;;;;;;;4.05;1.23;;;;;;;-145.41;100.00;58600.66;5000666;28;20022;-82
2023/07/26 08:58:18;;;;;;;2.72;1.25;;;;;;;-145.41;100.00;58600.66;4998710;28;20026;-82
2023/07/26 09:00:44;;;;;;;3.60;1.73;;;;;;;-145.41;100.00;58600.66;4997473;28;20038;-83
2023/07/26 09:03:13;;;;;;;5.30;1.20;;;;;;;-145.41;100.00;58600.66;5001256;28;20208;-82
2023/07/26 09:05:39;;;;;;;5.43;1.60;;;;;;;-145.41;100.00;58600.66;4997088;28;20535;-82
2023/07/26 09:08:04;;;;;;;3.58;1.42;;;;;;;-145.41;100.00;58600.66;4998578;28;20141;-82
2023/07/26 09:10:31;;;;;;;4.03;1.50;;;;;;;-145.41;100.00;58600.66;4996676;28;20044;-82
2023/07/26 09:13:15;;;;;;;11.30;1.60;;;;;;;-145.41;100.00;58600.66;4997002;28;20034;-82
2023/07/26 09:15:44;;;;;;;3.08;1.02;;;;;;;-145.41;100.00;58600.66;4997033;28;20042;-83
2023/07/26 09:18:10;;;;;;;4.07;1.80;;;;;;;-145.41;100.00;58600.66;4997182;28;20041;-82
2023/07/26 09:20:36;;;;;;;3.88;1.20;;;;;;;-145.41;100.00;58600.66;4995346;28;20098;-82
2023/07/26 09:23:06;;;;;;;2.70;1.33;;;;;;;-145.41;100.00;58600.66;4998781;28;20050;-83
2023/07/26 09:25:34;;;;;;;3.25;1.35;;;;;;;-145.41;100.00;58600.66;4997981;28;20042;-82
2023/07/26 09:27:59;;;;;;;3.70;1.33;;;;;;;-145.41;100.00;58600.66;5001095;28;20209;-83
2023/07/26 09:30:25;;;;;;;3.42;1.27;;;;;;;-145.41;100.00;58600.66;5000538;28;20113;-82
2023/07/26 09:32:51;;;;;;;3.05;1.13;;;;;;;-145.41;100.00;58600.66;4995079;28;20042;-82
2023/07/26 09:35:17;;;;;;;4.63;1.40;;;;;;;-145.41;100.00;58600.66;4997740;28;20117;-82
2023/07/26 09:37:42;;;;;;;3.58;1.15;;;;;;;-145.41;100.00;58600.66;4998596;28;20672;-82
2023/07/26 09:40:08;;;;;;;3.90;0.93;;;;;;;-145.41;100.00;58600.66;4997148;28;20038;-82
2023/07/26 09:42:44;;;;;;;3.50;1.20;;;;;;;-145.41;100.00;58600.66;5000521;28;20084;-82
2023/07/26 09:45:19;;;;;;;3.50;1.10;;;;;;;-145.41;100.00;58600.66;4999367;28;20165;-82
2023/07/26 09:47:46;;;;;;;2.78;1.15;;;;;;;-145.41;100.00;58600.66;4998618;28;20038;-82
2023/07/26 09:50:28;;;;;;;2.42;1.00;;;;;;;-145.41;100.00;58600.66;4992112;28;20064;-82
2023/07/26 09:52:54;;;;;;;;;;;;;;;-145.41;100.00;58600.66;4997561;28;20045;-82
2023/07/26 09:55:25;;;;;;;1.90;0.82;;;;;;;-145.41;100.00;58600.66;4997166;28;20376;-82
2023/07/26 09:57:53;;;;;;;1.73;0.75;;;;;;;-145.41;100.00;58600.66;4995351;28;20492;-82
2023/07/26 10:00:20;;;;;;;2.58;0.90;;;;;;;-145.41;100.00;58600.66;4992709;28;20467;-82
2023/07/26 10:02:53;;;;;;;3.25;1.50;;;;;;;-145.41;100.00;58600.66;4999228;28;20049;-82
2023/07/26 10:05:19;;;;;;;4.38;1.10;;;;;;;-145.41;100.00;58600.66;4996489;28;20052;-82
2023/07/26 10:07:46;;;;;;;2.40;0.80;;;;;;;-145.41;100.00;58600.66;4997789;28;20042;-82
2023/07/26 10:10:14;;;;;;;3.42;0.90;;;;;;;-145.41;100.00;58600.66;4995971;28;20042;-83
2023/07/26 10:12:44;;;;;;;3.55;1.23;;;;;;;-145.41;100.00;58600.66;4996222;28;20088;-82
2023/07/26 10:15:12;;;;;;;2.35;1.00;;;;;;;-145.41;100.00;58600.66;4995802;28;20034;-82
2023/07/26 10:17:38;;;;;;;1.27;0.47;;;;;;;-145.41;100.00;58600.66;4996750;28;20596;-82
2023/07/26 10:20:05;;;;;;;2.35;0.68;;;;;;;-145.41;100.00;58600.66;4994689;28;20079;-78
2023/07/26 10:22:32;;;;;;;2.50;0.88;;;;;;;-145.41;100.00;58600.66;4996244;28;20409;-80
2023/07/26 10:24:57;;;;;;;2.78;0.88;;;;;;;-145.41;100.00;58600.66;4995828;28;20049;-80
2023/07/26 10:27:23;;;;;;;4.03;1.08;;;;;;;-145.41;100.00;58600.66;4994262;28;20045;-80
2023/07/26 10:29:49;;;;;;;1.92;0.77;;;;;;;-145.41;100.00;58600.66;4994541;28;20581;-80
2023/07/26 10:32:14;;;;;;;2.53;0.80;;;;;;;-145.41;100.00;58600.66;4995816;28;20058;-79
2023/07/26 10:34:39;;;;;;;3.65;0.80;;;;;;;-145.41;100.00;58600.66;4995396;28;20390;-79
2023/07/26 10:37:14;;;;;;;3.97;1.08;;;;;;;-145.41;100.00;58600.66;4995835;28;20069;-79
2023/07/26 10:39:40;;;;;;;1.83;0.70;;;;;;;-145.41;100.00;58600.66;4993112;28;20049;-79
2023/07/26 10:42:19;;;;;;;3.08;0.98;;;;;;;-145.41;100.00;58600.66;4992572;28;20034;-81
2023/07/26 10:44:46;;;;;;;2.70;0.80;;;;;;;-145.41;100.00;58600.66;4997554;28;20042;-80
2023/07/26 10:47:11;;;;;;;2.67;1.00;;;;;;;-145.41;100.00;58600.66;4995543;28;20168;-81
2023/07/26 10:49:37;;;;;;;3.33;1.00;;;;;;;-145.41;100.00;58600.66;4996099;28;20062;-80
2023/07/26 10:52:04;;;;;;;2.83;0.95;;;;;;;-145.41;100.00;58600.66;4995982;28;20094;-81
2023/07/26 10:54:41;;;;;;;1.85;0.82;;;;;;;-145.41;100.00;58600.66;4995800;28;20041;-81
2023/07/26 10:57:15;;;;;;;3.15;1.00;;;;;;;-145.41;100.00;58600.66;4995610;28;20486;-81
2023/07/26 11:00:16;;;;;;;3.72;0.77;;;;;;;-145.41;100.00;58600.66;4993921;28;20048;-80
2023/07/26 11:02:47;;;;;;;3.72;1.30;;;;;;;-145.41;100.00;58600.66;4988703;28;20126;-76
2023/07/26 11:05:21;;;;;;;1.40;0.70;;;;;;;-145.41;100.00;58600.66;4980093;28;20034;-76